sensor_id;sensor_type;location;lat;lon;timestamp;pressure;altitude;pressure_sealevel;temperature;humidity
47636;BME280;33364;50.766;15.338;2023-05-01T00:00:52;95293.28;;;4.32;68.19
47636;BME280;33364;50.766;15.338;2023-05-01T00:03:18;95295.31;;;4.30;66.90
47636;BME280;33364;50.766;15.338;2023-05-01T00:05:44;95302.06;;;4.53;67.63
47636;BME280;33364;50.766;15.338;2023-05-01T00:08:11;95300.09;;;4.75;68.25
47636;BME280;33364;50.766;15.338;2023-05-01T00:10:37;95306.81;;;4.84;67.66
47636;BME280;33364;50.766;15.338;2023-05-01T00:13:03;95296.47;;;4.76;66.34
47636;BME280;33364;50.766;15.338;2023-05-01T00:15:30;95294.94;;;4.47;64.68
47636;BME280;33364;50.766;15.338;2023-05-01T00:17:57;95301.84;;;4.54;66.12
47636;BME280;33364;50.766;15.338;2023-05-01T00:20:27;95296.19;;;4.57;66.29
47636;BME280;33364;50.766;15.338;2023-05-01T00:22:53;95299.28;;;4.74;64.11
47636;BME280;33364;50.766;15.338;2023-05-01T00:25:19;95295.25;;;4.17;64.15
47636;BME280;33364;50.766;15.338;2023-05-01T00:27:45;95296.81;;;4.11;72.46
47636;BME280;33364;50.766;15.338;2023-05-01T00:30:11;95287.75;;;4.14;67.15
47636;BME280;33364;50.766;15.338;2023-05-01T00:32:37;95292.91;;;4.42;65.36
47636;BME280;33364;50.766;15.338;2023-05-01T00:35:03;95290.84;;;4.31;72.23
47636;BME280;33364;50.766;15.338;2023-05-01T00:37:29;95287.03;;;3.92;64.76
47636;BME280;33364;50.766;15.338;2023-05-01T00:39:55;95289.81;;;3.83;67.73
47636;BME280;33364;50.766;15.338;2023-05-01T00:42:20;95283.03;;;4.02;65.37
47636;BME280;33364;50.766;15.338;2023-05-01T00:44:46;95278.66;;;4.23;65.34
47636;BME280;33364;50.766;15.338;2023-05-01T00:47:12;95281.44;;;3.66;67.39
47636;BME280;33364;50.766;15.338;2023-05-01T00:49:41;95278.78;;;3.66;67.52
47636;BME280;33364;50.766;15.338;2023-05-01T00:52:07;95276.69;;;3.90;69.82
47636;BME280;33364;50.766;15.338;2023-05-01T00:54:36;95272.34;;;4.11;67.58
47636;BME280;33364;50.766;15.338;2023-05-01T00:57:02;95273.59;;;4.21;69.22
47636;BME280;33364;50.766;15.338;2023-05-01T00:59:28;95269.91;;;4.09;67.81
47636;BME280;33364;50.766;15.338;2023-05-01T01:01:54;95274.44;;;3.87;67.45
47636;BME280;33364;50.766;15.338;2023-05-01T01:04:21;95273.50;;;4.01;72.31
47636;BME280;33364;50.766;15.338;2023-05-01T01:06:55;95269.38;;;4.20;68.70
47636;BME280;33364;50.766;15.338;2023-05-01T01:15:01;95273.22;;;4.25;70.46
47636;BME280;33364;50.766;15.338;2023-05-01T01:17:35;95277.50;;;4.32;64.58
47636;BME280;33364;50.766;15.338;2023-05-01T01:23:32;95266.91;;;3.77;65.62
47636;BME280;33364;50.766;15.338;2023-05-01T01:34:08;95270.13;;;4.14;69.38
47636;BME280;33364;50.766;15.338;2023-05-01T01:41:39;95261.44;;;4.14;67.64
47636;BME280;33364;50.766;15.338;2023-05-01T01:44:15;95263.44;;;4.12;69.83
47636;BME280;33364;50.766;15.338;2023-05-01T01:46:47;95257.59;;;4.16;67.47
47636;BME280;33364;50.766;15.338;2023-05-01T01:49:18;95260.44;;;4.21;68.11
47636;BME280;33364;50.766;15.338;2023-05-01T01:51:46;95248.19;;;3.94;66.32
47636;BME280;33364;50.766;15.338;2023-05-01T01:54:14;95243.75;;;3.94;67.89
47636;BME280;33364;50.766;15.338;2023-05-01T01:56:43;95247.63;;;3.98;67.90
47636;BME280;33364;50.766;15.338;2023-05-01T01:59:10;95248.66;;;4.04;68.11
47636;BME280;33364;50.766;15.338;2023-05-01T02:01:38;95250.31;;;4.18;68.21
47636;BME280;33364;50.766;15.338;2023-05-01T02:04:06;95249.53;;;3.76;65.87
47636;BME280;33364;50.766;15.338;2023-05-01T02:06:33;95250.31;;;3.70;68.99
47636;BME280;33364;50.766;15.338;2023-05-01T02:09:01;95243.84;;;3.73;69.65
47636;BME280;33364;50.766;15.338;2023-05-01T02:11:31;95236.25;;;3.84;71.96
47636;BME280;33364;50.766;15.338;2023-05-01T02:14:00;95237.41;;;3.75;63.97
47636;BME280;33364;50.766;15.338;2023-05-01T02:16:28;95238.81;;;3.43;68.83
47636;BME280;33364;50.766;15.338;2023-05-01T02:18:55;95242.16;;;3.58;67.03
47636;BME280;33364;50.766;15.338;2023-05-01T02:21:23;95223.84;;;3.72;68.54
47636;BME280;33364;50.766;15.338;2023-05-01T02:23:50;95230.94;;;3.78;67.70
47636;BME280;33364;50.766;15.338;2023-05-01T02:26:18;95229.28;;;3.70;70.02
47636;BME280;33364;50.766;15.338;2023-05-01T02:28:47;95224.47;;;3.80;68.86
47636;BME280;33364;50.766;15.338;2023-05-01T02:31:13;95224.38;;;3.60;68.28
47636;BME280;33364;50.766;15.338;2023-05-01T02:33:38;95217.69;;;3.23;67.77
47636;BME280;33364;50.766;15.338;2023-05-01T02:36:04;95216.16;;;3.35;69.18
47636;BME280;33364;50.766;15.338;2023-05-01T02:38:30;95219.22;;;3.39;71.23
47636;BME280;33364;50.766;15.338;2023-05-01T02:40:57;95211.13;;;3.40;70.03
47636;BME280;33364;50.766;15.338;2023-05-01T02:43:25;95207.06;;;3.38;66.70
47636;BME280;33364;50.766;15.338;2023-05-01T02:45:53;95207.13;;;3.51;72.45
47636;BME280;33364;50.766;15.338;2023-05-01T02:48:22;95212.38;;;3.44;69.41
47636;BME280;33364;50.766;15.338;2023-05-01T02:50:50;95211.47;;;3.65;71.08
47636;BME280;33364;50.766;15.338;2023-05-01T02:53:16;95209.66;;;3.73;68.68
47636;BME280;33364;50.766;15.338;2023-05-01T02:55:43;95211.34;;;3.80;71.00
47636;BME280;33364;50.766;15.338;2023-05-01T02:58:16;95215.81;;;3.86;70.49
47636;BME280;33364;50.766;15.338;2023-05-01T03:00:42;95211.38;;;3.94;68.21
47636;BME280;33364;50.766;15.338;2023-05-01T03:03:09;95215.34;;;3.70;67.84
47636;BME280;33364;50.766;15.338;2023-05-01T03:05:35;95218.78;;;3.35;68.62
47636;BME280;33364;50.766;15.338;2023-05-01T03:08:01;95204.66;;;3.43;68.01
47636;BME280;33364;50.766;15.338;2023-05-01T03:10:27;95199.69;;;3.55;70.12
47636;BME280;33364;50.766;15.338;2023-05-01T03:12:52;95202.59;;;3.31;70.08
47636;BME280;33364;50.766;15.338;2023-05-01T03:15:18;95204.44;;;3.38;70.48
47636;BME280;33364;50.766;15.338;2023-05-01T03:17:44;95199.66;;;3.48;67.93
47636;BME280;33364;50.766;15.338;2023-05-01T03:20:10;95199.75;;;2.98;68.76
47636;BME280;33364;50.766;15.338;2023-05-01T03:22:36;95207.31;;;2.86;71.99
47636;BME280;33364;50.766;15.338;2023-05-01T03:25:03;95200.59;;;3.05;69.63
47636;BME280;33364;50.766;15.338;2023-05-01T03:27:31;95203.59;;;3.02;71.53
47636;BME280;33364;50.766;15.338;2023-05-01T03:29:57;95199.22;;;3.09;66.73
47636;BME280;33364;50.766;15.338;2023-05-01T03:32:23;95200.47;;;2.64;68.67
47636;BME280;33364;50.766;15.338;2023-05-01T03:34:49;95205.50;;;2.87;70.65
47636;BME280;33364;50.766;15.338;2023-05-01T03:37:14;95192.63;;;2.92;70.97
47636;BME280;33364;50.766;15.338;2023-05-01T03:39:40;95193.97;;;3.09;68.50
47636;BME280;33364;50.766;15.338;2023-05-01T03:42:06;95197.06;;;3.20;70.15
47636;BME280;33364;50.766;15.338;2023-05-01T03:44:32;95205.69;;;3.13;69.13
47636;BME280;33364;50.766;15.338;2023-05-01T03:46:58;95197.72;;;3.28;70.51
47636;BME280;33364;50.766;15.338;2023-05-01T03:49:23;95197.00;;;3.13;65.52
47636;BME280;33364;50.766;15.338;2023-05-01T03:51:49;95197.47;;;2.45;68.94
47636;BME280;33364;50.766;15.338;2023-05-01T03:54:15;95194.41;;;2.63;71.74
47636;BME280;33364;50.766;15.338;2023-05-01T03:56:41;95197.22;;;2.83;70.82
47636;BME280;33364;50.766;15.338;2023-05-01T03:59:07;95187.28;;;2.79;67.78
47636;BME280;33364;50.766;15.338;2023-05-01T04:01:33;95192.78;;;2.62;69.51
47636;BME280;33364;50.766;15.338;2023-05-01T04:03:59;95190.19;;;2.41;71.67
47636;BME280;33364;50.766;15.338;2023-05-01T04:06:24;95188.03;;;2.72;73.99
47636;BME280;33364;50.766;15.338;2023-05-01T04:08:50;95184.97;;;2.97;69.67
47636;BME280;33364;50.766;15.338;2023-05-01T04:11:16;95187.31;;;2.57;71.13
47636;BME280;33364;50.766;15.338;2023-05-01T04:13:42;95186.59;;;2.48;73.96
47636;BME280;33364;50.766;15.338;2023-05-01T04:16:08;95178.97;;;2.75;71.96
47636;BME280;33364;50.766;15.338;2023-05-01T04:18:34;95181.50;;;2.90;70.75
47636;BME280;33364;50.766;15.338;2023-05-01T04:20:59;95193.69;;;2.98;71.79
47636;BME280;33364;50.766;15.338;2023-05-01T04:23:25;95194.06;;;3.23;72.43
47636;BME280;33364;50.766;15.338;2023-05-01T04:25:51;95186.38;;;3.21;68.36
47636;BME280;33364;50.766;15.338;2023-05-01T04:28:17;95191.25;;;2.96;70.28
47636;BME280;33364;50.766;15.338;2023-05-01T04:30:42;95180.84;;;2.81;70.09
47636;BME280;33364;50.766;15.338;2023-05-01T04:33:08;95187.31;;;2.57;74.35
47636;BME280;33364;50.766;15.338;2023-05-01T04:35:38;95184.03;;;2.33;70.01
47636;BME280;33364;50.766;15.338;2023-05-01T04:38:08;95190.84;;;2.49;72.42
47636;BME280;33364;50.766;15.338;2023-05-01T04:40:34;95186.84;;;2.75;70.86
47636;BME280;33364;50.766;15.338;2023-05-01T04:43:00;95179.25;;;2.87;73.06
47636;BME280;33364;50.766;15.338;2023-05-01T04:45:26;95194.72;;;3.03;71.49
47636;BME280;33364;50.766;15.338;2023-05-01T04:47:52;95184.84;;;3.05;71.61
47636;BME280;33364;50.766;15.338;2023-05-01T04:50:18;95185.34;;;2.94;71.13
47636;BME280;33364;50.766;15.338;2023-05-01T04:52:43;95185.94;;;3.18;72.77
47636;BME280;33364;50.766;15.338;2023-05-01T04:55:09;95178.91;;;3.25;71.42
47636;BME280;33364;50.766;15.338;2023-05-01T04:57:35;95178.75;;;3.33;69.74
47636;BME280;33364;50.766;15.338;2023-05-01T05:00:01;95171.81;;;3.54;70.23
47636;BME280;33364;50.766;15.338;2023-05-01T05:02:28;95180.75;;;3.73;74.71
47636;BME280;33364;50.766;15.338;2023-05-01T05:04:53;95181.09;;;3.56;69.13
47636;BME280;33364;50.766;15.338;2023-05-01T05:07:21;95181.34;;;3.61;71.37
47636;BME280;33364;50.766;15.338;2023-05-01T05:09:47;95173.72;;;3.73;69.97
47636;BME280;33364;50.766;15.338;2023-05-01T05:12:13;95174.47;;;3.60;75.04
47636;BME280;33364;50.766;15.338;2023-05-01T05:14:41;95177.94;;;3.74;72.86
47636;BME280;33364;50.766;15.338;2023-05-01T05:17:08;95170.13;;;3.81;71.95
47636;BME280;33364;50.766;15.338;2023-05-01T05:19:34;95159.38;;;3.34;68.62
47636;BME280;33364;50.766;15.338;2023-05-01T05:22:03;95162.09;;;3.12;73.58
47636;BME280;33364;50.766;15.338;2023-05-01T05:24:29;95159.59;;;3.39;72.33
47636;BME280;33364;50.766;15.338;2023-05-01T05:26:55;95163.22;;;3.80;71.12
47636;BME280;33364;50.766;15.338;2023-05-01T05:29:21;95162.50;;;4.13;71.22
47636;BME280;33364;50.766;15.338;2023-05-01T05:31:47;95154.81;;;4.04;68.01
47636;BME280;33364;50.766;15.338;2023-05-01T05:34:13;95149.09;;;3.88;71.44
47636;BME280;33364;50.766;15.338;2023-05-01T05:36:39;95148.00;;;4.30;73.92
47636;BME280;33364;50.766;15.338;2023-05-01T05:39:04;95147.63;;;4.67;68.84
47636;BME280;33364;50.766;15.338;2023-05-01T05:41:30;95150.25;;;4.87;70.37
47636;BME280;33364;50.766;15.338;2023-05-01T05:43:56;95154.31;;;4.83;69.10
47636;BME280;33364;50.766;15.338;2023-05-01T05:46:22;95158.94;;;5.01;70.38
47636;BME280;33364;50.766;15.338;2023-05-01T05:48:47;95167.84;;;5.13;67.66
47636;BME280;33364;50.766;15.338;2023-05-01T05:51:13;95162.34;;;5.21;67.65
47636;BME280;33364;50.766;15.338;2023-05-01T05:53:39;95165.22;;;5.26;72.62
47636;BME280;33364;50.766;15.338;2023-05-01T05:56:05;95164.13;;;5.47;68.12
47636;BME280;33364;50.766;15.338;2023-05-01T05:58:31;95163.66;;;5.64;68.58
47636;BME280;33364;50.766;15.338;2023-05-01T06:00:57;95158.16;;;5.79;67.36
47636;BME280;33364;50.766;15.338;2023-05-01T06:03:23;95169.25;;;5.94;67.32
47636;BME280;33364;50.766;15.338;2023-05-01T06:05:49;95155.69;;;6.29;68.89
47636;BME280;33364;50.766;15.338;2023-05-01T06:08:15;95152.81;;;6.69;66.65
47636;BME280;33364;50.766;15.338;2023-05-01T06:10:42;95151.75;;;6.77;63.89
47636;BME280;33364;50.766;15.338;2023-05-01T06:13:08;95142.63;;;6.98;61.15
47636;BME280;33364;50.766;15.338;2023-05-01T06:15:39;95138.59;;;7.14;60.71
47636;BME280;33364;50.766;15.338;2023-05-01T06:18:05;95140.94;;;7.47;60.70
47636;BME280;33364;50.766;15.338;2023-05-01T06:20:31;95132.69;;;7.74;58.34
47636;BME280;33364;50.766;15.338;2023-05-01T06:22:57;95133.03;;;7.96;59.00
47636;BME280;33364;50.766;15.338;2023-05-01T06:25:23;95136.88;;;8.12;56.08
47636;BME280;33364;50.766;15.338;2023-05-01T06:27:50;95144.97;;;8.17;55.58
47636;BME280;33364;50.766;15.338;2023-05-01T06:30:16;95135.38;;;8.35;52.73
47636;BME280;33364;50.766;15.338;2023-05-01T06:32:47;95145.56;;;8.19;53.43
47636;BME280;33364;50.766;15.338;2023-05-01T06:35:13;95147.47;;;8.12;53.11
47636;BME280;33364;50.766;15.338;2023-05-01T06:37:39;95138.78;;;8.23;52.27
47636;BME280;33364;50.766;15.338;2023-05-01T06:40:06;95140.19;;;8.26;51.89
47636;BME280;33364;50.766;15.338;2023-05-01T06:42:32;95137.00;;;8.36;50.52
47636;BME280;33364;50.766;15.338;2023-05-01T06:44:58;95134.66;;;8.27;51.85
47636;BME280;33364;50.766;15.338;2023-05-01T06:47:23;95124.59;;;8.48;53.15
47636;BME280;33364;50.766;15.338;2023-05-01T06:49:49;95124.91;;;8.70;51.82
47636;BME280;33364;50.766;15.338;2023-05-01T06:52:15;95124.56;;;8.90;51.36
47636;BME280;33364;50.766;15.338;2023-05-01T06:54:41;95120.09;;;9.14;50.99
47636;BME280;33364;50.766;15.338;2023-05-01T06:57:07;95115.59;;;9.39;50.13
47636;BME280;33364;50.766;15.338;2023-05-01T06:59:34;95123.31;;;9.28;47.75
47636;BME280;33364;50.766;15.338;2023-05-01T07:02:00;95122.94;;;9.36;48.09
47636;BME280;33364;50.766;15.338;2023-05-01T07:04:26;95118.91;;;9.46;46.37
47636;BME280;33364;50.766;15.338;2023-05-01T07:06:51;95121.34;;;9.47;47.07
47636;BME280;33364;50.766;15.338;2023-05-01T07:09:17;95113.09;;;9.72;46.83
47636;BME280;33364;50.766;15.338;2023-05-01T07:11:43;95116.34;;;9.74;46.57
47636;BME280;33364;50.766;15.338;2023-05-01T07:14:10;95117.19;;;9.92;45.28
47636;BME280;33364;50.766;15.338;2023-05-01T07:16:36;95106.50;;;10.16;45.15
47636;BME280;33364;50.766;15.338;2023-05-01T07:19:02;95111.63;;;10.34;45.12
47636;BME280;33364;50.766;15.338;2023-05-01T07:21:27;95109.34;;;10.55;44.69
47636;BME280;33364;50.766;15.338;2023-05-01T07:23:53;95104.44;;;10.80;43.91
47636;BME280;33364;50.766;15.338;2023-05-01T07:26:19;95113.56;;;10.84;43.76
47636;BME280;33364;50.766;15.338;2023-05-01T07:28:45;95108.69;;;10.98;43.42
47636;BME280;33364;50.766;15.338;2023-05-01T07:31:10;95111.59;;;11.14;43.39
47636;BME280;33364;50.766;15.338;2023-05-01T07:33:37;95113.69;;;11.29;43.91
47636;BME280;33364;50.766;15.338;2023-05-01T07:36:03;95102.19;;;11.45;43.17
47636;BME280;33364;50.766;15.338;2023-05-01T07:38:29;95109.13;;;11.46;41.49
47636;BME280;33364;50.766;15.338;2023-05-01T07:40:55;95108.84;;;11.65;40.69
47636;BME280;33364;50.766;15.338;2023-05-01T07:43:22;95110.72;;;11.64;40.79
47636;BME280;33364;50.766;15.338;2023-05-01T07:46:00;95102.97;;;11.63;39.56
47636;BME280;33364;50.766;15.338;2023-05-01T07:48:27;95101.41;;;11.67;39.17
47636;BME280;33364;50.766;15.338;2023-05-01T07:50:53;95089.41;;;11.86;39.74
47636;BME280;33364;50.766;15.338;2023-05-01T07:53:19;95097.22;;;12.15;40.31
47636;BME280;33364;50.766;15.338;2023-05-01T07:55:47;95094.41;;;12.27;36.80
47636;BME280;33364;50.766;15.338;2023-05-01T07:58:14;95087.25;;;12.60;37.71
47636;BME280;33364;50.766;15.338;2023-05-01T08:00:39;95076.34;;;12.99;35.63
47636;BME280;33364;50.766;15.338;2023-05-01T08:03:05;95079.91;;;13.10;35.09
47636;BME280;33364;50.766;15.338;2023-05-01T08:05:31;95075.13;;;13.17;33.87
47636;BME280;33364;50.766;15.338;2023-05-01T08:07:57;95081.44;;;13.38;34.86
47636;BME280;33364;50.766;15.338;2023-05-01T08:10:23;95077.75;;;13.44;32.39
47636;BME280;33364;50.766;15.338;2023-05-01T08:12:49;95077.75;;;13.44;31.63
47636;BME280;33364;50.766;15.338;2023-05-01T08:15:14;95074.59;;;13.57;32.34
47636;BME280;33364;50.766;15.338;2023-05-01T08:17:41;95068.97;;;13.54;35.85
47636;BME280;33364;50.766;15.338;2023-05-01T08:20:07;95069.91;;;13.80;34.42
47636;BME280;33364;50.766;15.338;2023-05-01T08:22:33;95069.88;;;13.75;32.97
47636;BME280;33364;50.766;15.338;2023-05-01T08:24:59;95070.13;;;13.73;32.75
47636;BME280;33364;50.766;15.338;2023-05-01T08:27:25;95064.91;;;14.04;32.83
47636;BME280;33364;50.766;15.338;2023-05-01T08:29:51;95062.41;;;13.82;34.01
47636;BME280;33364;50.766;15.338;2023-05-01T08:32:17;95057.97;;;14.19;31.83
47636;BME280;33364;50.766;15.338;2023-05-01T08:34:43;95053.97;;;14.11;32.00
47636;BME280;33364;50.766;15.338;2023-05-01T08:37:09;95056.13;;;14.45;31.77
47636;BME280;33364;50.766;15.338;2023-05-01T08:39:35;95051.13;;;14.64;32.18
47636;BME280;33364;50.766;15.338;2023-05-01T08:42:01;95054.88;;;14.73;30.65
47636;BME280;33364;50.766;15.338;2023-05-01T08:44:29;95054.28;;;14.56;29.66
47636;BME280;33364;50.766;15.338;2023-05-01T08:47:14;95058.06;;;14.65;29.91
47636;BME280;33364;50.766;15.338;2023-05-01T08:49:41;95054.06;;;14.83;29.56
47636;BME280;33364;50.766;15.338;2023-05-01T08:52:13;95051.59;;;15.22;31.27
47636;BME280;33364;50.766;15.338;2023-05-01T08:54:44;95054.25;;;15.28;28.37
47636;BME280;33364;50.766;15.338;2023-05-01T08:57:11;95049.22;;;15.00;28.65
47636;BME280;33364;50.766;15.338;2023-05-01T08:59:38;95044.94;;;15.10;30.17
47636;BME280;33364;50.766;15.338;2023-05-01T09:02:09;95039.19;;;15.52;28.08
47636;BME280;33364;50.766;15.338;2023-05-01T09:04:39;95037.16;;;15.29;27.68
47636;BME280;33364;50.766;15.338;2023-05-01T09:07:07;95039.72;;;15.59;27.16
47636;BME280;33364;50.766;15.338;2023-05-01T09:09:33;95032.69;;;15.74;30.76
47636;BME280;33364;50.766;15.338;2023-05-01T09:12:19;95046.66;;;15.76;28.24
47636;BME280;33364;50.766;15.338;2023-05-01T09:14:49;95048.44;;;15.96;26.21
47636;BME280;33364;50.766;15.338;2023-05-01T09:17:16;95046.47;;;16.17;24.00
47636;BME280;33364;50.766;15.338;2023-05-01T09:19:43;95050.13;;;16.26;26.62
47636;BME280;33364;50.766;15.338;2023-05-01T09:22:09;95039.34;;;15.97;23.37
47636;BME280;33364;50.766;15.338;2023-05-01T09:24:36;95036.88;;;16.06;20.75
47636;BME280;33364;50.766;15.338;2023-05-01T09:27:02;95030.44;;;16.02;21.94
47636;BME280;33364;50.766;15.338;2023-05-01T09:29:42;95025.19;;;16.31;20.97
47636;BME280;33364;50.766;15.338;2023-05-01T09:34:41;95033.13;;;16.02;19.92
47636;BME280;33364;50.766;15.338;2023-05-01T09:37:13;95016.50;;;16.49;23.23
47636;BME280;33364;50.766;15.338;2023-05-01T09:39:48;95011.28;;;15.69;20.10
47636;BME280;33364;50.766;15.338;2023-05-01T09:42:25;95002.59;;;15.98;22.33
47636;BME280;33364;50.766;15.338;2023-05-01T09:44:50;95013.78;;;16.15;20.40
47636;BME280;33364;50.766;15.338;2023-05-01T09:47:20;95001.50;;;15.99;20.65
47636;BME280;33364;50.766;15.338;2023-05-01T09:49:51;95009.16;;;15.66;21.49
47636;BME280;33364;50.766;15.338;2023-05-01T09:52:18;95003.94;;;15.30;21.83
47636;BME280;33364;50.766;15.338;2023-05-01T09:54:44;95012.22;;;15.28;22.33
47636;BME280;33364;50.766;15.338;2023-05-01T09:57:10;95007.78;;;15.73;23.94
47636;BME280;33364;50.766;15.338;2023-05-01T09:59:35;95007.69;;;15.99;21.79
47636;BME280;33364;50.766;15.338;2023-05-01T10:02:01;95006.16;;;16.27;22.26
47636;BME280;33364;50.766;15.338;2023-05-01T10:04:32;94999.91;;;16.03;22.00
47636;BME280;33364;50.766;15.338;2023-05-01T10:07:18;95000.56;;;15.79;22.96
47636;BME280;33364;50.766;15.338;2023-05-01T10:09:43;95008.41;;;16.15;22.70
47636;BME280;33364;50.766;15.338;2023-05-01T10:12:09;94999.47;;;16.30;22.08
47636;BME280;33364;50.766;15.338;2023-05-01T10:14:48;94994.75;;;16.46;21.52
47636;BME280;33364;50.766;15.338;2023-05-01T10:17:17;95000.31;;;16.60;21.08
47636;BME280;33364;50.766;15.338;2023-05-01T10:19:46;95007.31;;;16.90;23.84
47636;BME280;33364;50.766;15.338;2023-05-01T10:22:13;94990.59;;;16.98;21.57
47636;BME280;33364;50.766;15.338;2023-05-01T10:24:40;94988.50;;;17.43;22.18
47636;BME280;33364;50.766;15.338;2023-05-01T10:27:06;94986.88;;;17.42;22.20
47636;BME280;33364;50.766;15.338;2023-05-01T10:29:36;94980.06;;;17.31;19.90
47636;BME280;33364;50.766;15.338;2023-05-01T10:32:06;94978.53;;;17.44;21.95
47636;BME280;33364;50.766;15.338;2023-05-01T10:34:44;94970.69;;;17.53;22.58
47636;BME280;33364;50.766;15.338;2023-05-01T10:37:18;94974.56;;;17.41;22.43
47636;BME280;33364;50.766;15.338;2023-05-01T10:39:45;94972.84;;;17.51;23.07
47636;BME280;33364;50.766;15.338;2023-05-01T10:42:11;94964.53;;;17.71;23.70
47636;BME280;33364;50.766;15.338;2023-05-01T10:44:41;94968.16;;;17.80;24.11
47636;BME280;33364;50.766;15.338;2023-05-01T10:50:09;94956.09;;;17.59;21.76
47636;BME280;33364;50.766;15.338;2023-05-01T10:55:40;94968.53;;;16.72;24.05
47636;BME280;33364;50.766;15.338;2023-05-01T10:58:13;62690.94;;;-146.88;100.00
47636;BME280;33364;50.766;15.338;2023-05-01T11:00:39;62690.94;;;-146.88;100.00
47636;BME280;33364;50.766;15.338;2023-05-01T11:08:28;62690.94;;;-146.88;100.00
47636;BME280;33364;50.766;15.338;2023-05-01T11:10:55;62690.94;;;-146.88;100.00
47636;BME280;33364;50.766;15.338;2023-05-01T11:13:56;62690.94;;;-146.88;100.00
47636;BME280;33364;50.766;15.338;2023-05-01T11:19:43;62690.94;;;-146.88;100.00
47636;BME280;33364;50.766;15.338;2023-05-01T11:21:57;62690.94;;;-146.88;100.00
47636;BME280;33364;50.766;15.338;2023-05-01T11:24:30;62690.94;;;-146.88;100.00
47636;BME280;33364;50.766;15.338;2023-05-01T11:26:57;62690.94;;;-146.88;100.00
47636;BME280;33364;50.766;15.338;2023-05-01T11:29:30;62690.94;;;-146.88;100.00
47636;BME280;33364;50.766;15.338;2023-05-01T11:31:58;62690.94;;;-146.88;100.00
47636;BME280;33364;50.766;15.338;2023-05-01T11:34:24;62690.94;;;-146.88;100.00
47636;BME280;33364;50.766;15.338;2023-05-01T11:36:51;62690.94;;;-146.88;100.00
47636;BME280;33364;50.766;15.338;2023-05-01T11:39:18;62690.94;;;-146.88;100.00
47636;BME280;33364;50.766;15.338;2023-05-01T11:41:45;62690.94;;;-146.88;100.00
47636;BME280;33364;50.766;15.338;2023-05-01T11:44:15;62690.94;;;-146.88;100.00
47636;BME280;33364;50.766;15.338;2023-05-01T11:46:41;62690.94;;;-146.88;100.00
47636;BME280;33364;50.766;15.338;2023-05-01T11:49:07;62690.94;;;-146.88;100.00
47636;BME280;33364;50.766;15.338;2023-05-01T11:51:34;62690.94;;;-146.88;100.00
47636;BME280;33364;50.766;15.338;2023-05-01T11:54:00;62690.94;;;-146.88;100.00
47636;BME280;33364;50.766;15.338;2023-05-01T11:56:27;62690.94;;;-146.88;100.00
47636;BME280;33364;50.766;15.338;2023-05-01T11:58:54;62690.94;;;-146.88;100.00
47636;BME280;33364;50.766;15.338;2023-05-01T12:01:20;62690.94;;;-146.88;100.00
47636;BME280;33364;50.766;15.338;2023-05-01T12:03:46;62690.94;;;-146.88;100.00
47636;BME280;33364;50.766;15.338;2023-05-01T12:06:12;62690.94;;;-146.88;100.00
47636;BME280;33364;50.766;15.338;2023-05-01T12:08:42;62690.94;;;-146.88;100.00
47636;BME280;33364;50.766;15.338;2023-05-01T12:11:10;62690.94;;;-146.88;100.00
47636;BME280;33364;50.766;15.338;2023-05-01T12:13:37;62690.94;;;-146.88;100.00
47636;BME280;33364;50.766;15.338;2023-05-01T12:16:03;62690.94;;;-146.88;100.00
47636;BME280;33364;50.766;15.338;2023-05-01T12:18:30;62690.94;;;-146.88;100.00
47636;BME280;33364;50.766;15.338;2023-05-01T12:20:56;62690.94;;;-146.88;100.00
47636;BME280;33364;50.766;15.338;2023-05-01T12:23:35;62690.94;;;-146.88;100.00
47636;BME280;33364;50.766;15.338;2023-05-01T12:26:21;62690.94;;;-146.88;100.00
47636;BME280;33364;50.766;15.338;2023-05-01T12:29:01;62690.94;;;-146.88;100.00
47636;BME280;33364;50.766;15.338;2023-05-01T12:31:28;62690.94;;;-146.88;100.00
47636;BME280;33364;50.766;15.338;2023-05-01T12:33:57;62690.94;;;-146.88;100.00
47636;BME280;33364;50.766;15.338;2023-05-01T12:36:25;62690.94;;;-146.88;100.00
47636;BME280;33364;50.766;15.338;2023-05-01T12:39:09;62690.94;;;-146.88;100.00
47636;BME280;33364;50.766;15.338;2023-05-01T12:41:40;62690.94;;;-146.88;100.00
47636;BME280;33364;50.766;15.338;2023-05-01T12:44:25;62690.94;;;-146.88;100.00
47636;BME280;33364;50.766;15.338;2023-05-01T12:46:59;62690.94;;;-146.88;100.00
47636;BME280;33364;50.766;15.338;2023-05-01T12:49:26;62690.94;;;-146.88;100.00
47636;BME280;33364;50.766;15.338;2023-05-01T12:51:56;62690.94;;;-146.88;100.00
47636;BME280;33364;50.766;15.338;2023-05-01T12:54:26;62690.94;;;-146.88;100.00
47636;BME280;33364;50.766;15.338;2023-05-01T12:56:52;62690.94;;;-146.88;100.00
47636;BME280;33364;50.766;15.338;2023-05-01T12:59:26;62690.94;;;-146.88;100.00
47636;BME280;33364;50.766;15.338;2023-05-01T13:01:59;62690.94;;;-146.88;100.00
47636;BME280;33364;50.766;15.338;2023-05-01T13:04:26;62690.94;;;-146.88;100.00
47636;BME280;33364;50.766;15.338;2023-05-01T13:06:53;62690.94;;;-146.88;100.00
47636;BME280;33364;50.766;15.338;2023-05-01T13:09:24;62690.94;;;-146.88;100.00
47636;BME280;33364;50.766;15.338;2023-05-01T13:12:05;62690.94;;;-146.88;100.00
47636;BME280;33364;50.766;15.338;2023-05-01T13:14:41;62690.94;;;-146.88;100.00
47636;BME280;33364;50.766;15.338;2023-05-01T13:17:08;62690.94;;;-146.88;100.00
47636;BME280;33364;50.766;15.338;2023-05-01T13:19:34;62690.94;;;-146.88;100.00
47636;BME280;33364;50.766;15.338;2023-05-01T13:22:01;62690.94;;;-146.88;100.00
47636;BME280;33364;50.766;15.338;2023-05-01T13:24:39;62690.94;;;-146.88;100.00
47636;BME280;33364;50.766;15.338;2023-05-01T13:27:07;62690.94;;;-146.88;100.00
47636;BME280;33364;50.766;15.338;2023-05-01T13:29:34;62690.94;;;-146.88;100.00
47636;BME280;33364;50.766;15.338;2023-05-01T13:32:00;62690.94;;;-146.88;100.00